Time,TemperatureF,DewpointF,PressureIn,WindDirection,WindDirectionDegrees,WindSpeedMPH,WindSpeedGustMPH,Humidity,HourlyPrecipIn,Conditions,Clouds,dailyrainin,SolarRadiationWatts/m^2,SoftwareType,DateUTC
2013-10-20 00:26:00,46.2,27.1,29.99,North,360,3.0,3.0,47,0.00,,,0.00,0,Wunderground v.1.15,2013-10-20 06:26:00,
2013-10-20 00:31:00,46.0,26.9,30.00,North,5,0.0,5.0,47,0.00,,,0.00,0,Wunderground v.1.15,2013-10-20 06:31:00,
2013-10-20 00:37:00,46.0,26.9,30.00,NNE,30,1.0,2.0,47,0.00,,,0.00,0,Wunderground v.1.15,2013-10-20 06:37:00,
2013-10-20 00:42:00,45.9,27.3,30.00,NE,36,3.0,3.0,48,0.00,,,0.00,0,Wunderground v.1.15,2013-10-20 06:42:00,
2013-10-20 00:48:00,45.8,27.2,30.00,North,360,2.0,4.0,48,0.00,,,0.00,0,Wunderground v.1.15,2013-10-20 06:48:00,
2013-10-20 00:53:00,45.8,27.2,30.00,North,10,0.0,4.0,48,0.00,,,0.00,0,Wunderground v.1.15,2013-10-20 06:53:00,
2013-10-20 00:59:00,45.8,27.2,30.00,North,360,0.0,3.0,48,0.00,,,0.00,0,Wunderground v.1.15,2013-10-20 06:59:00,
2013-10-20 01:05:00,45.9,27.3,30.00,NNE,19,0.0,3.0,48,0.00,,,0.00,0,Wunderground v.1.15,2013-10-20 07:05:00,
2013-10-20 01:10:00,45.9,27.3,30.00,NNE,23,0.0,2.0,48,0.00,,,0.00,0,Wunderground v.1.15,2013-10-20 07:10:00,
2013-10-20 01:15:00,46.1,27.5,30.00,North,9,5.0,6.0,48,0.00,,,0.00,0,Wunderground v.1.15,2013-10-20 07:15:00,
2013-10-20 01:21:00,46.4,27.2,30.01,NNE,16,5.0,5.0,47,0.00,,,0.00,0,Wunderground v.1.15,2013-10-20 07:21:00,
2013-10-20 01:27:00,46.8,27.6,30.01,NNW,344,6.0,8.0,47,0.00,,,0.00,0,Wunderground v.1.15,2013-10-20 07:27:00,
2013-10-20 01:32:00,47.2,27.5,30.00,NNW,340,2.0,6.0,46,0.00,,,0.00,0,Wunderground v.1.15,2013-10-20 07:32:00,
2013-10-20 01:38:00,47.4,27.6,30.00,North,355,3.0,6.0,46,0.00,,,0.00,0,Wunderground v.1.15,2013-10-20 07:38:00,
2013-10-20 01:43:00,47.3,27.5,30.00,North,355,2.0,4.0,46,0.00,,,0.00,0,Wunderground v.1.15,2013-10-20 07:43:00,
2013-10-20 01:48:00,47.1,27.4,30.01,NNW,346,1.0,4.0,46,0.00,,,0.00,0,Wunderground v.1.15,2013-10-20 07:48:00,
2013-10-20 01:53:00,46.9,27.7,30.01,North,350,0.0,2.0,47,0.00,,,0.00,0,Wunderground v.1.15,2013-10-20 07:53:00,
2013-10-20 01:59:00,46.5,27.8,30.01,NNE,20,4.0,4.0,48,0.00,,,0.00,0,Wunderground v.1.15,2013-10-20 07:59:00,
2013-10-20 02:04:00,46.3,27.7,30.01,NNE,12,0.0,7.0,48,0.00,,,0.00,0,Wunderground v.1.15,2013-10-20 08:04:00,
2013-10-20 02:09:00,46.3,27.7,30.01,NNE,14,0.0,7.0,48,0.00,,,0.00,0,Wunderground v.1.15,2013-10-20 08:09:00,
2013-10-20 02:14:00,46.2,27.6,30.01,NNE,15,0.0,2.0,48,0.00,,,0.00,0,Wunderground v.1.15,2013-10-20 08:14:00,
2013-10-20 02:19:00,46.2,28.1,30.01,NNE,15,0.0,2.0,49,0.00,,,0.00,0,Wunderground v.1.15,2013-10-20 08:19:00,
2013-10-20 02:24:00,46.1,28.0,30.01,NNE,15,0.0,3.0,49,0.00,,,0.00,0,Wunderground v.1.15,2013-10-20 08:24:00,
2013-10-20 02:29:00,45.9,28.3,30.01,NNE,15,0.0,3.0,50,0.00,,,0.00,0,Wunderground v.1.15,2013-10-20 08:29:00,
2013-10-20 02:34:00,45.7,28.1,30.01,NNE,14,0.0,0.0,50,0.00,,,0.00,0,Wunderground v.1.15,2013-10-20 08:34:00,
2013-10-20 02:39:00,45.5,27.9,30.01,NNE,15,0.0,3.0,50,0.00,,,0.00,0,Wunderground v.1.15,2013-10-20 08:39:00,
2013-10-20 02:44:00,45.3,28.2,30.01,NNE,15,0.0,1.0,51,0.00,,,0.00,0,Wunderground v.1.15,2013-10-20 08:44:00,
2013-10-20 02:49:00,45.1,28.0,30.02,NNE,14,0.0,4.0,51,0.00,,,0.00,0,Wunderground v.1.15,2013-10-20 08:49:00,
2013-10-20 02:54:00,45.0,28.4,30.02,NNE,15,0.0,1.0,52,0.00,,,0.00,0,Wunderground v.1.15,2013-10-20 08:54:00,
2013-10-20 02:59:00,44.9,28.3,30.02,NNE,15,0.0,3.0,52,0.00,,,0.00,0,Wunderground v.1.15,2013-10-20 08:59:00,
2013-10-20 03:04:00,44.8,28.7,30.02,NNE,15,0.0,1.0,53,0.00,,,0.00,0,Wunderground v.1.15,2013-10-20 09:04:00,
2013-10-20 03:09:00,44.7,28.6,30.02,North,360,4.0,5.0,53,0.00,,,0.00,0,Wunderground v.1.15,2013-10-20 09:09:00,
2013-10-20 03:14:00,44.8,29.2,30.02,NNE,17,2.0,5.0,54,0.00,,,0.00,0,Wunderground v.1.15,2013-10-20 09:14:00,
2013-10-20 03:19:00,44.9,29.7,30.02,NNE,17,0.0,5.0,55,0.00,,,0.00,0,Wunderground v.1.15,2013-10-20 09:19:00,
2013-10-20 03:24:00,44.7,30.0,30.02,NNE,17,0.0,2.0,56,0.00,,,0.00,0,Wunderground v.1.15,2013-10-20 09:24:00,
2013-10-20 03:29:00,44.6,29.9,30.02,NNE,17,0.0,2.0,56,0.00,,,0.00,0,Wunderground v.1.15,2013-10-20 09:29:00,
2013-10-20 03:34:00,44.5,30.2,30.02,NNE,17,0.0,0.0,57,0.00,,,0.00,0,Wunderground v.1.15,2013-10-20 09:34:00,
2013-10-20 03:39:00,44.3,30.4,30.02,NNE,17,0.0,0.0,58,0.00,,,0.00,0,Wunderground v.1.15,2013-10-20 09:39:00,
2013-10-20 03:44:00,44.1,30.3,30.02,NNE,17,0.0,3.0,58,0.00,,,0.00,0,Wunderground v.1.15,2013-10-20 09:44:00,
2013-10-20 03:49:00,43.8,30.4,30.02,NNE,17,0.0,4.0,59,0.00,,,0.00,0,Wunderground v.1.15,2013-10-20 09:49:00,
2013-10-20 03:54:00,43.7,30.7,30.02,NNE,17,0.0,2.0,60,0.00,,,0.00,0,Wunderground v.1.15,2013-10-20 09:54:00,
2013-10-20 03:59:00,43.5,30.5,30.02,NNE,16,0.0,2.0,60,0.00,,,0.00,0,Wunderground v.1.15,2013-10-20 09:59:00,
2013-10-20 04:04:00,43.3,30.7,30.02,NNE,17,0.0,2.0,61,0.00,,,0.00,0,Wunderground v.1.15,2013-10-20 10:04:00,
2013-10-20 04:09:00,43.1,31.0,30.02,NNE,17,0.0,2.0,62,0.00,,,0.00,0,Wunderground v.1.15,2013-10-20 10:09:00,
2013-10-20 04:14:00,42.7,30.6,30.02,NNE,17,0.0,3.0,62,0.00,,,0.00,0,Wunderground v.1.15,2013-10-20 10:14:00,
2013-10-20 04:19:00,42.4,30.7,30.01,NNE,17,0.0,3.0,63,0.00,,,0.00,0,Wunderground v.1.15,2013-10-20 10:19:00,
2013-10-20 04:24:00,42.1,30.8,30.01,NNE,17,0.0,1.0,64,0.00,,,0.00,0,Wunderground v.1.15,2013-10-20 10:24:00,
2013-10-20 04:29:00,41.6,30.7,30.01,NNE,15,1.0,2.0,65,0.00,,,0.00,0,Wunderground v.1.15,2013-10-20 10:29:00,
2013-10-20 04:34:00,41.5,31.0,30.02,NNE,17,0.0,2.0,66,0.00,,,0.00,0,Wunderground v.1.15,2013-10-20 10:34:00,
2013-10-20 04:39:00,41.5,31.0,30.02,North,355,0.0,4.0,66,0.00,,,0.00,0,Wunderground v.1.15,2013-10-20 10:39:00,
2013-10-20 04:44:00,41.3,30.8,30.02,North,355,0.0,4.0,66,0.00,,,0.00,0,Wunderground v.1.15,2013-10-20 10:44:00,
2013-10-20 04:49:00,41.0,30.5,30.02,North,355,1.0,4.0,66,0.00,,,0.00,0,Wunderground v.1.15,2013-10-20 10:49:00,
2013-10-20 04:54:00,40.7,30.6,30.02,North,355,2.0,3.0,67,0.00,,,0.00,0,Wunderground v.1.15,2013-10-20 10:54:00,
2013-10-20 04:59:00,40.4,30.7,30.02,North,355,0.0,3.0,68,0.00,,,0.00,0,Wunderground v.1.15,2013-10-20 10:59:00,
2013-10-20 05:04:00,40.3,30.6,30.02,North,355,0.0,3.0,68,0.00,,,0.00,0,Wunderground v.1.15,2013-10-20 11:04:00,
2013-10-20 05:09:00,40.1,30.7,30.02,North,355,1.0,3.0,69,0.00,,,0.00,0,Wunderground v.1.15,2013-10-20 11:09:00,
2013-10-20 05:14:00,40.0,30.6,30.02,North,355,0.0,3.0,69,0.00,,,0.00,0,Wunderground v.1.15,2013-10-20 11:14:00,
2013-10-20 05:19:00,40.0,31.0,30.02,North,355,0.0,3.0,70,0.00,,,0.00,0,Wunderground v.1.15,2013-10-20 11:19:00,
2013-10-20 05:24:00,40.2,31.2,30.02,North,355,0.0,4.0,70,0.00,,,0.00,0,Wunderground v.1.15,2013-10-20 11:24:00,
2013-10-20 09:22:00,39.7,32.8,30.00,SSE,160,0.0,4.0,76,0.00,,,0.00,74,Wunderground v.1.15,2013-10-20 15:22:00,
2013-10-20 09:27:00,39.9,32.6,30.00,SSE,160,0.0,4.0,75,0.00,,,0.00,81,Wunderground v.1.15,2013-10-20 15:27:00,
2013-10-20 09:32:00,40.1,32.8,30.00,SSE,160,0.0,0.0,75,0.00,,,0.00,93,Wunderground v.1.15,2013-10-20 15:32:00,
2013-10-20 09:37:00,40.4,32.8,30.00,SSE,160,0.0,5.0,74,0.00,,,0.00,86,Wunderground v.1.15,2013-10-20 15:37:00,
2013-10-20 09:42:00,40.6,33.0,30.00,SSE,160,0.0,1.0,74,0.00,,,0.00,105,Wunderground v.1.15,2013-10-20 15:42:00,
2013-10-20 09:47:00,40.9,32.9,30.01,SSE,165,2.0,7.0,73,0.00,,,0.00,109,Wunderground v.1.15,2013-10-20 15:47:00,
2013-10-20 09:52:00,41.2,32.9,30.01,SSE,163,2.0,5.0,72,0.00,,,0.00,125,Wunderground v.1.15,2013-10-20 15:52:00,
2013-10-20 09:57:00,41.4,32.7,30.01,SSE,163,0.0,6.0,71,0.00,,,0.00,123,Wunderground v.1.15,2013-10-20 15:57:00,
2013-10-20 10:02:00,41.6,32.9,30.01,SSE,161,0.0,5.0,71,0.00,,,0.00,88,Wunderground v.1.15,2013-10-20 16:02:00,
2013-10-20 10:07:00,41.8,33.1,30.01,SSE,161,0.0,5.0,71,0.00,,,0.00,88,Wunderground v.1.15,2013-10-20 16:07:00,
2013-10-20 10:12:00,41.9,33.2,30.01,SSE,161,0.0,1.0,71,0.00,,,0.00,98,Wunderground v.1.15,2013-10-20 16:12:00,
2013-10-20 10:17:00,42.1,33.0,30.01,SSE,163,0.0,5.0,70,0.00,,,0.00,114,Wunderground v.1.15,2013-10-20 16:17:00,
2013-10-20 10:22:00,42.2,32.8,30.01,SSE,167,5.0,5.0,69,0.00,,,0.00,132,Wunderground v.1.15,2013-10-20 16:22:00,
2013-10-20 10:27:00,42.5,33.0,30.01,SSE,165,0.0,6.0,69,0.00,,,0.00,160,Wunderground v.1.15,2013-10-20 16:27:00,
2013-10-20 10:32:00,42.7,32.9,30.01,SSE,163,5.0,6.0,68,0.00,,,0.00,134,Wunderground v.1.15,2013-10-20 16:32:00,
2013-10-20 10:37:00,42.9,33.1,30.01,SSE,164,1.0,6.0,68,0.00,,,0.00,93,Wunderground v.1.15,2013-10-20 16:37:00,
2013-10-20 10:42:00,43.2,33.0,30.01,SSE,163,0.0,5.0,67,0.00,,,0.00,128,Wunderground v.1.15,2013-10-20 16:42:00,
2013-10-20 10:47:00,43.4,33.2,30.01,SSE,163,2.0,5.0,67,0.00,,,0.00,153,Wunderground v.1.15,2013-10-20 16:47:00,
2013-10-20 10:52:00,43.7,33.5,30.01,SSE,163,0.0,5.0,67,0.00,,,0.00,153,Wunderground v.1.15,2013-10-20 16:52:00,
2013-10-20 10:57:00,44.0,33.4,30.01,SSE,162,1.0,5.0,66,0.00,,,0.00,160,Wunderground v.1.15,2013-10-20 16:57:00,
2013-10-20 11:02:00,44.2,33.2,30.00,SSE,161,1.0,4.0,65,0.00,,,0.00,162,Wunderground v.1.15,2013-10-20 17:02:00,
2013-10-20 11:07:00,44.4,33.4,30.00,SSE,161,0.0,4.0,65,0.00,,,0.00,192,Wunderground v.1.15,2013-10-20 17:07:00,
2013-10-20 11:12:00,44.7,33.6,30.00,SSE,161,0.0,0.0,65,0.00,,,0.00,172,Wunderground v.1.15,2013-10-20 17:12:00,
2013-10-20 11:17:00,45.0,33.5,30.00,SSE,161,0.0,2.0,64,0.00,,,0.00,181,Wunderground v.1.15,2013-10-20 17:17:00,
2013-10-20 11:23:00,45.2,33.3,30.00,SSE,161,0.0,4.0,63,0.00,,,0.00,193,Wunderground v.1.15,2013-10-20 17:23:00,
2013-10-20 11:28:00,45.5,33.6,30.00,SSE,161,0.0,4.0,63,0.00,,,0.00,221,Wunderground v.1.15,2013-10-20 17:28:00,
2013-10-20 11:33:00,45.8,33.9,30.00,SSE,161,0.0,2.0,63,0.00,,,0.00,232,Wunderground v.1.15,2013-10-20 17:33:00,
2013-10-20 11:38:00,46.6,35.1,30.00,SSE,162,0.0,2.0,64,0.00,,,0.00,237,Wunderground v.1.15,2013-10-20 17:38:00,
2013-10-20 11:43:00,47.4,34.2,30.00,SSE,161,0.0,0.0,60,0.00,,,0.00,251,Wunderground v.1.15,2013-10-20 17:43:00,
2013-10-20 11:48:00,47.8,34.6,30.00,SSE,161,0.0,0.0,60,0.00,,,0.00,244,Wunderground v.1.15,2013-10-20 17:48:00,
2013-10-20 11:53:00,48.1,33.6,30.00,SSE,161,0.0,1.0,57,0.00,,,0.00,229,Wunderground v.1.15,2013-10-20 17:53:00,
2013-10-20 11:58:00,48.2,33.7,30.00,SSE,161,0.0,1.0,57,0.00,,,0.00,243,Wunderground v.1.15,2013-10-20 17:58:00,
2013-10-20 12:03:00,48.1,33.6,29.99,SSE,161,0.0,0.0,57,0.00,,,0.00,229,Wunderground v.1.15,2013-10-20 18:03:00,
2013-10-20 12:08:00,47.9,33.4,29.99,SSE,161,0.0,0.0,57,0.00,,,0.00,174,Wunderground v.1.15,2013-10-20 18:08:00,
2013-10-20 12:13:00,48.5,33.9,29.99,SSE,161,0.0,0.0,57,0.00,,,0.00,457,Wunderground v.1.15,2013-10-20 18:13:00,
2013-10-20 12:18:00,49.2,34.6,29.99,SSE,161,0.0,0.0,57,0.00,,,0.00,512,Wunderground v.1.15,2013-10-20 18:18:00,
2013-10-20 12:23:00,50.8,35.7,29.99,SSE,162,0.0,0.0,56,0.00,,,0.00,515,Wunderground v.1.15,2013-10-20 18:23:00,
2013-10-20 12:28:00,52.0,35.4,29.99,SSE,161,0.0,0.0,53,0.00,,,0.00,522,Wunderground v.1.15,2013-10-20 18:28:00,
2013-10-20 12:33:00,52.6,33.5,29.99,SSE,161,0.0,0.0,48,0.00,,,0.00,554,Wunderground v.1.15,2013-10-20 18:33:00,
2013-10-20 12:38:00,51.6,33.0,29.99,SSE,162,0.0,0.0,49,0.00,,,0.00,520,Wunderground v.1.15,2013-10-20 18:38:00,
2013-10-20 12:43:00,52.4,34.3,29.99,SSE,161,0.0,4.0,50,0.00,,,0.00,522,Wunderground v.1.15,2013-10-20 18:43:00,
2013-10-20 12:48:00,52.6,34.0,29.98,SSE,161,0.0,5.0,49,0.00,,,0.00,522,Wunderground v.1.15,2013-10-20 18:48:00,
2013-10-20 12:53:00,51.8,33.2,29.98,SSW,212,1.0,5.0,49,0.00,,,0.00,527,Wunderground v.1.15,2013-10-20 18:53:00,
2013-10-20 12:58:00,53.1,33.9,29.98,ESE,119,4.0,5.0,48,0.00,,,0.00,529,Wunderground v.1.15,2013-10-20 18:58:00,
2013-10-20 13:03:00,53.9,34.1,29.97,ESE,117,0.0,3.0,47,0.00,,,0.00,527,Wunderground v.1.15,2013-10-20 19:03:00,
2013-10-20 13:08:00,53.5,33.7,29.97,East,97,0.0,3.0,47,0.00,,,0.00,527,Wunderground v.1.15,2013-10-20 19:08:00,
2013-10-20 13:13:00,53.3,33.6,29.97,ESE,114,1.0,3.0,47,0.00,,,0.00,529,Wunderground v.1.15,2013-10-20 19:13:00,
2013-10-20 13:18:00,53.9,34.1,29.96,ESE,116,1.0,3.0,47,0.00,,,0.00,554,Wunderground v.1.15,2013-10-20 19:18:00,
2013-10-20 13:23:00,54.9,33.4,29.96,SSW,213,6.0,6.0,44,0.00,,,0.00,367,Wunderground v.1.15,2013-10-20 19:23:00,
2013-10-20 13:28:00,53.7,33.9,29.96,South,183,3.0,6.0,47,0.00,,,0.00,545,Wunderground v.1.15,2013-10-20 19:28:00,
2013-10-20 13:33:00,53.0,33.3,29.96,SSW,200,0.0,4.0,47,0.00,,,0.00,527,Wunderground v.1.15,2013-10-20 19:33:00,
2013-10-20 13:38:00,54.1,35.3,29.96,SSE,148,0.0,4.0,49,0.00,,,0.00,527,Wunderground v.1.15,2013-10-20 19:38:00,
2013-10-20 13:43:00,54.2,33.9,29.96,South,173,0.0,3.0,46,0.00,,,0.00,520,Wunderground v.1.15,2013-10-20 19:43:00,
2013-10-20 13:48:00,54.2,34.4,29.95,SSE,162,0.0,3.0,47,0.00,,,0.00,517,Wunderground v.1.15,2013-10-20 19:48:00,
2013-10-20 13:53:00,54.3,34.5,29.95,SSE,155,0.0,2.0,47,0.00,,,0.00,512,Wunderground v.1.15,2013-10-20 19:53:00,
2013-10-20 13:58:00,55.6,35.1,29.95,East,82,4.0,4.0,46,0.00,,,0.00,510,Wunderground v.1.15,2013-10-20 19:58:00,
2013-10-20 14:03:00,57.1,35.4,29.94,NE,51,2.0,9.0,44,0.00,,,0.00,510,Wunderground v.1.15,2013-10-20 20:03:00,
2013-10-20 14:08:00,56.8,34.5,29.94,East,86,0.0,9.0,43,0.00,,,0.00,519,Wunderground v.1.15,2013-10-20 20:08:00,
2013-10-20 14:13:00,56.7,35.0,29.94,NE,51,2.0,5.0,44,0.00,,,0.00,503,Wunderground v.1.15,2013-10-20 20:13:00,
2013-10-20 14:18:00,57.5,36.3,29.94,NE,49,3.0,5.0,45,0.00,,,0.00,501,Wunderground v.1.15,2013-10-20 20:18:00,
2013-10-20 14:23:00,56.9,35.2,29.94,ENE,57,0.0,3.0,44,0.00,,,0.00,497,Wunderground v.1.15,2013-10-20 20:23:00,
2013-10-20 14:28:00,57.2,34.3,29.94,ENE,57,0.0,3.0,42,0.00,,,0.00,490,Wunderground v.1.15,2013-10-20 20:28:00,
2013-10-20 14:33:00,58.0,35.6,29.94,ENE,72,0.0,4.0,43,0.00,,,0.00,515,Wunderground v.1.15,2013-10-20 20:33:00,
2013-10-20 14:38:00,57.9,35.5,29.94,ENE,64,0.0,4.0,43,0.00,,,0.00,512,Wunderground v.1.15,2013-10-20 20:38:00,
2013-10-20 14:43:00,58.2,35.8,29.94,East,101,0.0,6.0,43,0.00,,,0.00,519,Wunderground v.1.15,2013-10-20 20:43:00,
2013-10-20 14:48:00,58.6,35.6,29.92,ESE,116,3.0,7.0,42,0.00,,,0.00,503,Wunderground v.1.15,2013-10-20 20:48:00,
2013-10-20 14:53:00,57.6,34.7,29.92,SE,138,0.0,7.0,42,0.00,,,0.00,190,Wunderground v.1.15,2013-10-20 20:53:00,
2013-10-20 14:58:00,57.6,35.2,29.92,NNE,13,0.0,7.0,43,0.00,,,0.00,524,Wunderground v.1.15,2013-10-20 20:58:00,
2013-10-20 15:03:00,57.9,35.5,29.92,ENE,62,0.0,3.0,43,0.00,,,0.00,373,Wunderground v.1.15,2013-10-20 21:03:00,
2013-10-20 15:08:00,58.0,35.0,29.92,ENE,61,0.0,3.0,42,0.00,,,0.00,417,Wunderground v.1.15,2013-10-20 21:08:00,
2013-10-20 15:13:00,56.9,34.6,29.92,WSW,245,0.0,2.0,43,0.00,,,0.00,102,Wunderground v.1.15,2013-10-20 21:13:00,
2013-10-20 15:18:00,56.3,32.9,29.92,NNW,347,8.0,14.0,41,0.00,,,0.00,90,Wunderground v.1.15,2013-10-20 21:18:00,
2013-10-20 15:23:00,56.3,32.9,29.92,NW,326,11.0,14.0,41,0.00,,,0.00,98,Wunderground v.1.15,2013-10-20 21:23:00,
2013-10-20 15:28:00,55.9,32.5,29.92,NNW,342,8.0,17.0,41,0.00,,,0.00,63,Wunderground v.1.15,2013-10-20 21:28:00,
2013-10-20 15:33:00,55.7,32.3,29.92,WNW,292,9.0,15.0,41,0.00,,,0.00,388,Wunderground v.1.15,2013-10-20 21:33:00,
2013-10-20 15:38:00,56.5,32.4,29.92,NW,321,10.0,17.0,40,0.00,,,0.00,373,Wunderground v.1.15,2013-10-20 21:38:00,
2013-10-20 15:43:00,56.5,33.1,29.92,NNW,337,12.0,19.0,41,0.00,,,0.00,360,Wunderground v.1.15,2013-10-20 21:43:00,
2013-10-20 15:48:00,57.0,33.5,29.91,NW,325,8.0,19.0,41,0.00,,,0.00,352,Wunderground v.1.15,2013-10-20 21:48:00,
2013-10-20 15:53:00,57.1,33.0,29.91,NW,314,9.0,16.0,40,0.00,,,0.00,341,Wunderground v.1.15,2013-10-20 21:53:00,
2013-10-20 15:58:00,57.3,32.5,29.91,NW,313,6.0,17.0,39,0.00,,,0.00,327,Wunderground v.1.15,2013-10-20 21:58:00,
2013-10-20 16:03:00,57.2,32.4,29.92,North,350,11.0,18.0,39,0.00,,,0.00,315,Wunderground v.1.15,2013-10-20 22:03:00,
2013-10-20 16:08:00,57.1,33.0,29.92,NNW,348,10.0,18.0,40,0.00,,,0.00,304,Wunderground v.1.15,2013-10-20 22:08:00,
2013-10-20 16:13:00,57.7,32.9,29.92,WNW,299,8.0,17.0,39,0.00,,,0.00,295,Wunderground v.1.15,2013-10-20 22:13:00,
2013-10-20 16:18:00,57.9,33.1,29.92,North,351,12.0,18.0,39,0.00,,,0.00,283,Wunderground v.1.15,2013-10-20 22:18:00,
2013-10-20 16:23:00,57.6,32.2,29.92,North,350,8.0,16.0,38,0.00,,,0.00,271,Wunderground v.1.15,2013-10-20 22:23:00,
2013-10-20 16:28:00,57.6,33.4,29.92,NNW,348,9.0,16.0,40,0.00,,,0.00,260,Wunderground v.1.15,2013-10-20 22:28:00,
2013-10-20 16:33:00,57.4,33.3,29.92,NNW,333,6.0,14.0,40,0.00,,,0.00,246,Wunderground v.1.15,2013-10-20 22:33:00,
2013-10-20 16:38:00,57.5,33.3,29.92,NNW,342,6.0,14.0,40,0.00,,,0.00,234,Wunderground v.1.15,2013-10-20 22:38:00,
2013-10-20 16:43:00,57.0,32.9,29.92,NNW,338,9.0,17.0,40,0.00,,,0.00,221,Wunderground v.1.15,2013-10-20 22:43:00,
2013-10-20 16:48:00,56.9,32.8,29.92,NNW,339,9.0,17.0,40,0.00,,,0.00,207,Wunderground v.1.15,2013-10-20 22:48:00,
2013-10-20 16:53:00,57.0,32.9,29.92,NNW,336,13.0,17.0,40,0.00,,,0.00,185,Wunderground v.1.15,2013-10-20 22:53:00,
2013-10-20 16:58:00,56.4,33.0,29.92,NW,325,6.0,19.0,41,0.00,,,0.00,128,Wunderground v.1.15,2013-10-20 22:58:00,
2013-10-20 17:04:00,56.1,32.7,29.93,NNW,330,12.0,13.0,41,0.00,,,0.00,121,Wunderground v.1.15,2013-10-20 23:04:00,
2013-10-20 17:09:00,55.9,33.1,29.93,North,355,11.0,13.0,42,0.00,,,0.00,102,Wunderground v.1.15,2013-10-20 23:09:00,
2013-10-20 17:14:00,55.7,32.3,29.93,North,350,9.0,18.0,41,0.00,,,0.00,93,Wunderground v.1.15,2013-10-20 23:14:00,
2013-10-20 17:19:00,55.4,32.1,29.94,NW,315,10.0,18.0,41,0.00,,,0.00,128,Wunderground v.1.15,2013-10-20 23:19:00,
2013-10-20 17:24:00,55.5,32.2,29.94,NNW,332,9.0,14.0,41,0.00,,,0.00,114,Wunderground v.1.15,2013-10-20 23:24:00,
2013-10-20 17:29:00,55.4,32.1,29.94,WNW,300,4.0,14.0,41,0.00,,,0.00,54,Wunderground v.1.15,2013-10-20 23:29:00,
2013-10-20 17:34:00,55.0,31.7,29.94,NNW,337,4.0,13.0,41,0.00,,,0.00,83,Wunderground v.1.15,2013-10-20 23:34:00,
2013-10-20 17:39:00,54.6,31.9,29.94,NNW,337,10.0,13.0,42,0.00,,,0.00,35,Wunderground v.1.15,2013-10-20 23:39:00,
2013-10-20 17:44:00,54.0,32.0,29.94,NNW,331,5.0,10.0,43,0.00,,,0.00,25,Wunderground v.1.15,2013-10-20 23:44:00,
2013-10-20 17:49:00,53.5,32.1,29.95,NW,315,8.0,11.0,44,0.00,,,0.00,23,Wunderground v.1.15,2013-10-20 23:49:00,
2013-10-20 17:54:00,53.2,32.4,29.95,NW,321,1.0,6.0,45,0.00,,,0.00,21,Wunderground v.1.15,2013-10-20 23:54:00,
2013-10-20 17:59:00,52.8,32.0,29.95,NW,322,5.0,9.0,45,0.00,,,0.00,21,Wunderground v.1.15,2013-10-20 23:59:00,
2013-10-20 18:04:00,52.4,32.2,29.95,NNW,333,1.0,9.0,46,0.00,,,0.00,18,Wunderground v.1.15,2013-10-21 00:04:00,
2013-10-20 18:09:00,52.0,31.8,29.95,NNW,331,2.0,9.0,46,0.00,,,0.00,16,Wunderground v.1.15,2013-10-21 00:09:00,
2013-10-20 18:14:00,51.6,32.0,29.95,NW,318,4.0,8.0,47,0.00,,,0.00,12,Wunderground v.1.15,2013-10-21 00:14:00,
2013-10-20 18:19:00,51.2,31.6,29.95,NW,319,2.0,8.0,47,0.00,,,0.00,9,Wunderground v.1.15,2013-10-21 00:19:00,
2013-10-20 18:24:00,50.8,31.8,29.95,NW,317,4.0,5.0,48,0.00,,,0.00,7,Wunderground v.1.15,2013-10-21 00:24:00,
2013-10-20 18:29:00,50.3,31.3,29.95,NW,317,2.0,5.0,48,0.00,,,0.00,5,Wunderground v.1.15,2013-10-21 00:29:00,
2013-10-20 18:34:00,49.8,31.4,29.95,NW,317,3.0,4.0,49,0.00,,,0.00,5,Wunderground v.1.15,2013-10-21 00:34:00,
2013-10-20 18:39:00,49.2,31.3,29.95,NW,317,2.0,5.0,50,0.00,,,0.00,0,Wunderground v.1.15,2013-10-21 00:39:00,
2013-10-20 18:44:00,48.8,31.0,29.95,NW,317,2.0,4.0,50,0.00,,,0.00,0,Wunderground v.1.15,2013-10-21 00:44:00,
2013-10-20 18:49:00,48.5,31.2,29.96,NW,317,0.0,4.0,51,0.00,,,0.00,0,Wunderground v.1.15,2013-10-21 00:49:00,
2013-10-20 18:54:00,48.1,30.8,29.96,NW,317,1.0,3.0,51,0.00,,,0.00,0,Wunderground v.1.15,2013-10-21 00:54:00,
2013-10-20 18:58:00,47.7,30.9,29.96,NW,317,0.0,3.0,52,0.00,,,0.00,0,Wunderground v.1.15,2013-10-21 00:58:00,
2013-10-20 19:03:00,47.4,30.6,29.97,NW,317,0.0,1.0,52,0.00,,,0.00,0,Wunderground v.1.15,2013-10-21 01:03:00,
2013-10-20 19:09:00,47.1,30.8,29.97,NW,317,3.0,5.0,53,0.00,,,0.00,0,Wunderground v.1.15,2013-10-21 01:09:00,
2013-10-20 19:14:00,46.7,30.9,29.97,NW,317,0.0,1.0,54,0.00,,,0.00,0,Wunderground v.1.15,2013-10-21 01:14:00,
2013-10-20 19:19:00,46.1,30.8,29.97,NW,317,0.0,2.0,55,0.00,,,0.00,0,Wunderground v.1.15,2013-10-21 01:19:00,
2013-10-20 19:24:00,45.5,30.7,29.97,NW,317,0.0,0.0,56,0.00,,,0.00,0,Wunderground v.1.15,2013-10-21 01:24:00,
2013-10-20 19:29:00,45.0,30.7,29.97,NW,317,0.0,0.0,57,0.00,,,0.00,0,Wunderground v.1.15,2013-10-21 01:29:00,
2013-10-20 19:34:00,44.7,32.1,29.97,NW,317,0.0,0.0,61,0.00,,,0.00,0,Wunderground v.1.15,2013-10-21 01:34:00,
2013-10-20 19:39:00,44.3,30.4,29.97,NW,317,0.0,0.0,58,0.00,,,0.00,0,Wunderground v.1.15,2013-10-21 01:39:00,
2013-10-20 19:44:00,43.9,30.5,29.97,NW,317,0.0,0.0,59,0.00,,,0.00,0,Wunderground v.1.15,2013-10-21 01:44:00,
2013-10-20 19:49:00,43.7,30.7,29.98,NW,317,0.0,0.0,60,0.00,,,0.00,0,Wunderground v.1.15,2013-10-21 01:49:00,
2013-10-20 19:54:00,43.5,30.9,29.98,NW,317,0.0,1.0,61,0.00,,,0.00,0,Wunderground v.1.15,2013-10-21 01:54:00,
2013-10-20 19:59:00,43.3,31.1,29.98,NW,317,0.0,1.0,62,0.00,,,0.00,0,Wunderground v.1.15,2013-10-21 01:59:00,
2013-10-20 20:04:00,43.1,31.0,29.98,NW,317,0.0,0.0,62,0.00,,,0.00,0,Wunderground v.1.15,2013-10-21 02:04:00,
2013-10-20 20:09:00,43.1,30.6,29.98,NW,317,0.0,0.0,61,0.00,,,0.00,0,Wunderground v.1.15,2013-10-21 02:09:00,
2013-10-20 20:14:00,43.0,30.5,29.98,NW,317,0.0,0.0,61,0.00,,,0.00,0,Wunderground v.1.15,2013-10-21 02:14:00,
2013-10-20 20:19:00,42.8,30.3,29.98,NW,317,0.0,0.0,61,0.00,,,0.00,0,Wunderground v.1.15,2013-10-21 02:19:00,
2013-10-20 20:24:00,42.3,29.8,29.98,NW,317,0.0,0.0,61,0.00,,,0.00,0,Wunderground v.1.15,2013-10-21 02:24:00,
2013-10-20 20:29:00,41.7,29.6,29.98,NW,317,0.0,0.0,62,0.00,,,0.00,0,Wunderground v.1.15,2013-10-21 02:29:00,
2013-10-20 20:34:00,41.2,29.5,29.99,NW,317,0.0,0.0,63,0.00,,,0.00,0,Wunderground v.1.15,2013-10-21 02:34:00,
2013-10-20 20:39:00,40.6,29.4,29.99,NW,317,0.0,0.0,64,0.00,,,0.00,0,Wunderground v.1.15,2013-10-21 02:39:00,
2013-10-20 20:44:00,40.4,29.6,29.99,NW,317,0.0,1.0,65,0.00,,,0.00,0,Wunderground v.1.15,2013-10-21 02:44:00,
2013-10-20 20:49:00,40.5,29.7,29.99,NW,317,0.0,1.0,65,0.00,,,0.00,0,Wunderground v.1.15,2013-10-21 02:49:00,
2013-10-20 20:54:00,40.2,29.7,29.99,NW,317,0.0,5.0,66,0.00,,,0.00,0,Wunderground v.1.15,2013-10-21 02:54:00,
2013-10-20 20:59:00,39.9,29.5,29.99,NW,317,0.0,5.0,66,0.00,,,0.00,0,Wunderground v.1.15,2013-10-21 02:59:00,
2013-10-20 21:04:00,39.5,29.4,30.00,NW,317,0.0,1.0,67,0.00,,,0.00,0,Wunderground v.1.15,2013-10-21 03:04:00,
2013-10-20 21:09:00,39.3,29.6,30.00,NW,317,0.0,1.0,68,0.00,,,0.00,0,Wunderground v.1.15,2013-10-21 03:09:00,
2013-10-20 21:14:00,38.9,29.2,30.00,NW,317,0.0,0.0,68,0.00,,,0.00,0,Wunderground v.1.15,2013-10-21 03:14:00,
2013-10-20 21:19:00,38.7,29.4,30.00,NW,317,0.0,0.0,69,0.00,,,0.00,0,Wunderground v.1.15,2013-10-21 03:19:00,
2013-10-20 21:24:00,38.6,29.3,30.00,NW,317,0.0,0.0,69,0.00,,,0.00,0,Wunderground v.1.15,2013-10-21 03:24:00,
2013-10-20 21:29:00,38.7,29.8,30.00,NW,318,0.0,0.0,70,0.00,,,0.00,0,Wunderground v.1.15,2013-10-21 03:29:00,
2013-10-20 21:34:00,38.5,29.6,30.01,NW,318,0.0,3.0,70,0.00,,,0.00,0,Wunderground v.1.15,2013-10-21 03:34:00,
2013-10-20 21:39:00,38.5,29.6,30.01,NW,318,2.0,4.0,70,0.00,,,0.00,0,Wunderground v.1.15,2013-10-21 03:39:00,
2013-10-20 21:44:00,38.6,29.7,30.01,NW,317,2.0,3.0,70,0.00,,,0.00,0,Wunderground v.1.15,2013-10-21 03:44:00,
2013-10-20 21:49:00,38.2,29.3,30.02,NW,317,2.0,3.0,70,0.00,,,0.00,0,Wunderground v.1.15,2013-10-21 03:49:00,
2013-10-20 21:54:00,37.8,29.2,30.02,NW,317,0.0,3.0,71,0.00,,,0.00,0,Wunderground v.1.15,2013-10-21 03:54:00,
2013-10-20 21:59:00,37.7,29.1,30.02,NW,317,0.0,3.0,71,0.00,,,0.00,0,Wunderground v.1.15,2013-10-21 03:59:00,
2013-10-20 22:01:00,37.7,29.1,30.02,NW,317,0.0,1.0,71,0.00,,,0.00,0,Wunderground v.1.15,2013-10-21 04:01:00,
2013-10-20 22:06:00,37.6,29.4,30.02,NW,317,0.0,1.0,72,0.00,,,0.00,0,Wunderground v.1.15,2013-10-21 04:06:00,
2013-10-20 22:11:00,37.2,29.0,30.02,NW,317,1.0,1.0,72,0.00,,,0.00,0,Wunderground v.1.15,2013-10-21 04:11:00,
2013-10-20 22:16:00,36.9,29.1,30.04,NW,317,0.0,1.0,73,0.00,,,0.00,0,Wunderground v.1.15,2013-10-21 04:16:00,
2013-10-20 22:22:00,36.6,29.1,30.04,NW,317,0.0,0.0,74,0.00,,,0.00,0,Wunderground v.1.15,2013-10-21 04:22:00,
2013-10-20 22:27:00,36.4,28.9,30.04,NW,317,0.0,0.0,74,0.00,,,0.00,0,Wunderground v.1.15,2013-10-21 04:27:00,
2013-10-20 22:32:00,35.8,28.3,30.04,NW,317,0.0,0.0,74,0.00,,,0.00,0,Wunderground v.1.15,2013-10-21 04:32:00,
2013-10-20 22:37:00,35.2,27.4,30.04,NW,317,0.0,0.0,73,0.00,,,0.00,0,Wunderground v.1.15,2013-10-21 04:37:00,
2013-10-20 22:42:00,34.4,27.0,30.04,NW,317,0.0,0.0,74,0.00,,,0.00,0,Wunderground v.1.15,2013-10-21 04:42:00,
2013-10-20 22:47:00,34.0,26.9,30.04,NW,317,0.0,0.0,75,0.00,,,0.00,0,Wunderground v.1.15,2013-10-21 04:47:00,
2013-10-20 22:52:00,33.6,26.5,30.04,NW,317,0.0,0.0,75,0.00,,,0.00,0,Wunderground v.1.15,2013-10-21 04:52:00,
2013-10-20 22:57:00,33.4,26.3,30.04,NW,317,0.0,0.0,75,0.00,,,0.00,0,Wunderground v.1.15,2013-10-21 04:57:00,
2013-10-20 23:02:00,33.2,26.5,30.04,NW,317,0.0,0.0,76,0.00,,,0.00,0,Wunderground v.1.15,2013-10-21 05:02:00,
2013-10-20 23:07:00,33.1,26.7,30.04,NW,317,0.0,0.0,77,0.00,,,0.00,0,Wunderground v.1.15,2013-10-21 05:07:00,
2013-10-20 23:12:00,32.7,26.3,30.04,NW,317,0.0,0.0,77,0.00,,,0.00,0,Wunderground v.1.15,2013-10-21 05:12:00,
2013-10-20 23:17:00,32.3,25.9,30.05,NW,317,0.0,0.0,77,0.00,,,0.00,0,Wunderground v.1.15,2013-10-21 05:17:00,
2013-10-20 23:22:00,32.1,26.0,30.05,NW,317,0.0,0.0,78,0.00,,,0.00,0,Wunderground v.1.15,2013-10-21 05:22:00,
2013-10-20 23:27:00,32.0,26.2,30.05,NW,318,0.0,0.0,79,0.00,,,0.00,0,Wunderground v.1.15,2013-10-21 05:27:00,
2013-10-20 23:32:00,31.9,26.4,30.06,NW,317,0.0,0.0,80,0.00,,,0.00,0,Wunderground v.1.15,2013-10-21 05:32:00,
2013-10-20 23:37:00,31.8,26.3,30.06,NW,317,0.0,0.0,80,0.00,,,0.00,0,Wunderground v.1.15,2013-10-21 05:37:00,
2013-10-20 23:42:00,31.6,26.1,30.06,NW,317,0.0,0.0,80,0.00,,,0.00,0,Wunderground v.1.15,2013-10-21 05:42:00,
2013-10-20 23:47:00,31.5,26.0,30.06,NW,317,0.0,0.0,80,0.00,,,0.00,0,Wunderground v.1.15,2013-10-21 05:47:00,
2013-10-20 23:52:00,31.3,26.1,30.06,NW,317,0.0,0.0,81,0.00,,,0.00,0,Wunderground v.1.15,2013-10-21 05:52:00,
2013-10-20 23:57:00,31.2,26.0,30.06,NW,317,0.0,0.0,81,0.00,,,0.00,0,Wunderground v.1.15,2013-10-21 05:57:00,